• Join FlightAware (Why Join?)
  • Login
  • US Flag 
02:58PM EDT


 

Airport Tracker/Info


-or-


 

Live Flight TrackerFlight Track Log ✈ UAL481 ✈ 15-Jun-2013 ✈ PANC - KORD

Flight Track Log - Related Links

Times and Time Zones

All times are in EDT time to prevent confusion due to time zone crossing. See the UAL481 flight status page for this flight to view local times or setup timezone preferences in your user account.

Time Position Orientation Groundspeed Altitude Reporting Facility
EDT Latitude Longitude Course Direction KTS MPH feet Rate Location/Type
12:29AM 61.2333 -149.7000 103° East 270 311 9,700  Level Anchorage Center
12:30AM 61.2167 -149.5333 102° East 320 368 11,000 1,500 Climbing Anchorage Center
12:31AM 60.9264 -148.5876 99° East  Level FlightAware Approximate
12:31AM 61.1833 -149.3333 109° East 360 414 12,700  Level Anchorage Center
12:32AM 60.9072 -148.3416 99° East  Level FlightAware Approximate
12:32AM 61.1667 -149.1500 101° East 380 437 14,700  Level Anchorage Center
12:33AM 60.8855 -148.0967 101° East  Level FlightAware Approximate
12:33AM 61.1333 -148.9333 108° East 390 449 16,700  Level Anchorage Center
12:34AM 60.8613 -147.8529 103° East  Level FlightAware Approximate
12:34AM 61.1167 -148.7167 99° East 400 460 18,300  Level Anchorage Center
12:35AM 60.8335 -147.6110 103° East  Level FlightAware Approximate
12:35AM 61.1000 -148.4833 98° East 400 460 20,100  Level Anchorage Center
12:36AM 61.0833 -148.2500 98° East 420 483 21,800 1,560 Climbing Anchorage Center
12:37AM 61.0667 -148.0167 98° East 420 483 23,300 1,380 Climbing Anchorage Center
12:38AM 61.0500 -147.7667 98° East 420 483 24,600 1,380 Climbing Anchorage Center
12:39AM 61.0333 -147.5167 98° East 430 495 26,100 1,320 Climbing Anchorage Center
12:40AM 61.0167 -147.2667 98° East 430 495 27,300 1,080 Climbing Anchorage Center
12:41AM 61.0000 -147.0167 98° East 440 506 28,300 1,200 Climbing Anchorage Center
12:43AM 60.9500 -146.5167 101° East 440 506 31,100 1,320 Climbing Anchorage Center
12:45AM 60.9333 -146.2833 98° East 430 495 32,300 1,140 Climbing Anchorage Center
12:46AM 60.9167 -146.0333 98° East 420 483 33,400 960 Climbing Anchorage Center
12:47AM 60.8833 -145.7500 103° East 420 483 34,300 780 Climbing Anchorage Center
12:48AM 60.8667 -145.5667 100° East 410 472 35,000 300 Climbing Anchorage Center
12:49AM 60.8500 -145.2833 97° East 410 472 35,000  Level Anchorage Center
12:50AM 60.8167 -145.0500 106° East 410 472 35,000  Level Anchorage Center
12:51AM 60.8000 -144.8167 98° East 420 483 35,000  Level Anchorage Center
12:52AM 60.7833 -144.5833 98° East 410 472 35,000  Level Anchorage Center
12:53AM 60.7500 -144.3500 106° East 410 472 35,000  Level Anchorage Center
12:54AM 60.7333 -144.1167 98° East 410 472 35,000  Level Anchorage Center
12:55AM 60.7000 -143.8833 106° East 420 483 35,000  Level Anchorage Center
12:56AM 60.6833 -143.6667 99° East 400 460 35,000  Level Anchorage Center
12:57AM 60.6667 -143.4333 98° East 410 472 35,000  Level Anchorage Center
12:58AM 60.6333 -143.2000 106° East 410 472 35,000  Level Anchorage Center
12:59AM 60.6000 -142.9667 106° East 410 472 35,000  Level Anchorage Center
01:00AM 60.5833 -142.7833 100° East 400 460 35,000  Level Anchorage Center
01:01AM 60.5667 -142.5667 99° East 400 460 35,000  Level Anchorage Center
01:02AM 60.5333 -142.3333 106° East 410 472 35,000  Level Anchorage Center
01:03AM 60.5167 -142.1167 99° East 410 472 35,000  Level Anchorage Center
01:04AM 60.4833 -141.8833 106° East 410 472 35,000  Level Anchorage Center
01:05AM 60.4500 -141.6667 107° East 410 472 35,000  Level Anchorage Center
01:06AM 60.4333 -141.4333 98° East 410 472 35,000  Level Anchorage Center
01:07AM 60.4000 -141.1667 104° East 410 472 35,000  Level Anchorage Center
01:08AM 60.3667 -140.9333 106° East 410 472 35,000  Level Anchorage Center
01:09AM 60.3333 -140.7167 107° East 410 472 35,000  Level Anchorage Center
01:10AM 60.3167 -140.4833 98° East 410 472 35,000  Level Anchorage Center
01:11AM 60.2833 -140.2667 107° East 410 472 35,000  Level Anchorage Center
01:12AM 60.2500 -140.0333 106° East 420 483 35,000  Level Anchorage Center
01:13AM 60.2167 -139.8167 107° East 410 472 35,000  Level Anchorage Center
01:14AM 60.1833 -139.6000 107° East 410 472 35,000  Level Anchorage Center
01:15AM 60.1667 -139.4167 100° East 410 472 35,000  Level Anchorage Center
01:16AM 60.1333 -139.2000 107° East 410 472 35,000  Level Anchorage Center
01:17AM 60.1000 -138.9167 103° East 410 472 35,000  Level Anchorage Center
01:19AM 60.0522 -138.4890 102° East  Level FlightAware Approximate
01:26AM 59.8554 -136.8530 103° East  Level FlightAware Approximate
01:27AM 59.8256 -136.6210 104° East  Level FlightAware Approximate
01:28AM 59.7954 -136.3893 104° East  Level FlightAware Approximate
01:29AM 59.7648 -136.1580 105° East  Level FlightAware Approximate
01:30AM 59.7338 -135.9272 105° East  Level FlightAware Approximate
01:31AM 59.7024 -135.6968 105° East  Level FlightAware Approximate
01:32AM 59.6707 -135.4668 105° East  Level FlightAware Approximate
01:33AM 59.6385 -135.2373 105° East  Level FlightAware Approximate
01:34AM 59.6059 -135.0082 106° East  Level FlightAware Approximate
01:35AM 59.5728 -134.7796 106° East  Level FlightAware Approximate
01:36AM 59.5395 -134.5514 106° East  Level FlightAware Approximate
01:37AM 59.5057 -134.3237 106° East  Level FlightAware Approximate
01:38AM 59.4715 -134.0964 106° East  Level FlightAware Approximate
01:39AM 59.4369 -133.8696 107° East  Level FlightAware Approximate
01:40AM 59.4019 -133.6433 107° East  Level FlightAware Approximate
01:41AM 59.3666 -133.4174 107° East  Level FlightAware Approximate
01:42AM 59.3308 -133.1920 107° East  Level FlightAware Approximate
01:43AM 59.2946 -132.9671 108° East  Level FlightAware Approximate
01:44AM 59.2576 -132.7429 108° East  Level FlightAware Approximate
01:45AM 59.2203 -132.5192 108° East  Level FlightAware Approximate
01:46AM 59.1825 -132.2961 108° East  Level FlightAware Approximate
01:47AM 59.1444 -132.0734 108° East  Level FlightAware Approximate
01:48AM 59.1059 -131.8512 109° East  Level FlightAware Approximate
01:49AM 59.0670 -131.6295 109° East  Level FlightAware Approximate
01:50AM 59.0277 -131.4083 109° East  Level FlightAware Approximate
01:51AM 58.9881 -131.1876 109° East  Level FlightAware Approximate
01:52AM 58.9481 -130.9675 109° East  Level FlightAware Approximate
01:53AM 58.9077 -130.7478 110° East  Level FlightAware Approximate
01:54AM 58.8669 -130.5287 110° East  Level FlightAware Approximate
01:55AM 58.8258 -130.3100 110° East  Level FlightAware Approximate
01:56AM 58.7843 -130.0919 110° East  Level FlightAware Approximate
01:57AM 58.7430 -129.8740 110° East  Level FlightAware Approximate
01:58AM 58.7018 -129.6562 110° East  Level FlightAware Approximate
01:59AM 58.6601 -129.4390 110° East  Level FlightAware Approximate
02:00AM 58.6181 -129.2223 110° East  Level FlightAware Approximate
02:01AM 58.5758 -129.0061 111° Southeast  Level FlightAware Approximate
02:02AM 58.5331 -128.7904 111° Southeast  Level FlightAware Approximate
02:03AM 58.4900 -128.5753 111° Southeast  Level FlightAware Approximate
02:04AM 58.4466 -128.3607 111° Southeast  Level FlightAware Approximate
02:05AM 58.4028 -128.1466 111° Southeast  Level FlightAware Approximate
02:06AM 58.3587 -127.9330 111° Southeast  Level FlightAware Approximate
02:07AM 58.3142 -127.7200 112° Southeast  Level FlightAware Approximate
02:08AM 58.2693 -127.5076 112° Southeast  Level FlightAware Approximate
02:09AM 58.2241 -127.2956 112° Southeast  Level FlightAware Approximate
02:10AM 58.1785 -127.0842 112° Southeast  Level FlightAware Approximate
02:11AM 58.1326 -126.8734 112° Southeast  Level FlightAware Approximate
02:12AM 58.0864 -126.6631 113° Southeast  Level FlightAware Approximate
02:13AM 58.0398 -126.4533 113° Southeast  Level FlightAware Approximate
02:14AM 57.9926 -126.2443 113° Southeast  Level FlightAware Approximate
02:15AM 57.9448 -126.0361 113° Southeast  Level FlightAware Approximate
02:16AM 57.8967 -125.8284 113° Southeast  Level FlightAware Approximate
02:17AM 57.8482 -125.6212 114° Southeast  Level FlightAware Approximate
02:18AM 57.7994 -125.4147 114° Southeast  Level FlightAware Approximate
02:19AM 57.7503 -125.2087 114° Southeast  Level FlightAware Approximate
02:20AM 57.7008 -125.0032 114° Southeast  Level FlightAware Approximate
02:21AM 57.6511 -124.7982 114° Southeast  Level FlightAware Approximate
02:22AM 57.6010 -124.5938 114° Southeast  Level FlightAware Approximate
02:23AM 57.5506 -124.3900 115° Southeast  Level FlightAware Approximate
02:24AM 57.4999 -124.1867 115° Southeast  Level FlightAware Approximate
02:24AM 57.5000 -124.4167 116° Southeast 450 518 35,000  Level Edmonton Center
02:25AM 57.4489 -123.9840 115° Southeast  Level FlightAware Approximate
02:25AM 57.4500 -124.2167 115° Southeast 450 518 35,000  Level Edmonton Center
02:26AM 57.3975 -123.7819 115° Southeast  Level FlightAware Approximate
02:26AM 57.3833 -123.9833 118° Southeast 450 518 35,000  Level Edmonton Center
02:27AM 57.3459 -123.5803 115° Southeast  Level FlightAware Approximate
02:27AM 57.3333 -123.7667 113° Southeast 450 518 35,000  Level Edmonton Center
02:28AM 57.2939 -123.3793 116° Southeast  Level FlightAware Approximate
02:28AM 57.2833 -123.5667 115° Southeast 450 518 35,000  Level Edmonton Center
02:29AM 57.2416 -123.1789 116° Southeast  Level FlightAware Approximate
02:29AM 57.2500 -123.3667 107° East 450 518 35,000  Level Edmonton Center
02:30AM 57.1667 -123.1333 123° Southeast 450 518 35,000  Level Edmonton Center
02:31AM 57.1333 -122.9500 108° East 450 518 35,000  Level Edmonton Center
02:32AM 57.0833 -122.7333 113° Southeast 450 518 35,000  Level Edmonton Center
02:33AM 57.0167 -122.5333 121° Southeast 450 518 35,000  Level Edmonton Center
02:34AM 56.9667 -122.3167 113° Southeast 440 506 35,000  Level Edmonton Center
02:35AM 56.9000 -122.1000 119° Southeast 440 506 35,000  Level Edmonton Center
02:36AM 56.8667 -121.9167 108° East 440 506 35,000 240 Level Edmonton Center
02:37AM 56.8000 -121.7000 119° Southeast 440 506 35,500 480 Climbing Edmonton Center
02:38AM 56.7500 -121.5167 116° Southeast 440 506 36,000 540 Climbing Edmonton Center
02:39AM 56.6833 -121.3000 119° Southeast 450 518 36,600 480 Climbing Edmonton Center
02:40AM 56.6167 -121.1167 123° Southeast 450 518 37,000 180 Climbing Edmonton Center
02:41AM 56.5667 -120.9000 113° Southeast 450 518 37,000  Level Edmonton Center
02:42AM 56.5000 -120.6833 119° Southeast 450 518 37,000  Level Edmonton Center
02:43AM 56.4667 -120.5000 108° East 450 518 37,000  Level Edmonton Center
02:44AM 56.4000 -120.3000 121° Southeast 450 518 37,000  Level Edmonton Center
02:45AM 56.3333 -120.1167 123° Southeast 450 518 37,000  Level Edmonton Center
02:46AM 56.2833 -119.9000 112° Southeast 440 506 37,000  Level Edmonton Center
02:47AM 56.2167 -119.7167 123° Southeast 450 518 37,000  Level Edmonton Center
02:48AM 56.1500 -119.5167 121° Southeast 450 518 37,000  Level Edmonton Center
02:49AM 56.1000 -119.3000 112° Southeast 450 518 37,000  Level Edmonton Center
02:50AM 56.0333 -119.0833 119° Southeast 450 518 37,000  Level Edmonton Center
02:51AM 55.9667 -118.9167 126° Southeast 450 518 37,000  Level Edmonton Center
02:52AM 55.9000 -118.7333 123° Southeast 450 518 37,000  Level Edmonton Center
02:53AM 55.8333 -118.5333 121° Southeast 450 518 37,000  Level Edmonton Center
02:54AM 55.7833 -118.3167 112° Southeast 450 518 37,000  Level Edmonton Center
02:55AM 55.7167 -118.1167 121° Southeast 450 518 37,000  Level Edmonton Center
02:56AM 55.6667 -117.9500 118° Southeast 450 518 37,000  Level Edmonton Center
02:57AM 55.5833 -117.7333 124° Southeast 450 518 37,000  Level Edmonton Center
02:58AM 55.5333 -117.5667 118° Southeast 450 518 37,000  Level Edmonton Center
02:59AM 55.4667 -117.3667 120° Southeast 450 518 37,000  Level Edmonton Center
03:00AM 55.4000 -117.1667 120° Southeast 450 518 37,000  Level Edmonton Center
03:01AM 55.3333 -116.9833 123° Southeast 450 518 37,000  Level Edmonton Center
03:02AM 55.2667 -116.7833 120° Southeast 450 518 37,000  Level Edmonton Center
03:03AM 55.2000 -116.6167 125° Southeast 440 506 37,000  Level Edmonton Center
03:04AM 55.1333 -116.4167 120° Southeast 440 506 37,000  Level Edmonton Center
03:05AM 55.0833 -116.2500 118° Southeast 440 506 37,000  Level Edmonton Center
03:06AM 55.0167 -116.0500 120° Southeast 430 495 37,000  Level Edmonton Center
03:07AM 54.9500 -115.8833 125° Southeast 430 495 37,000  Level Edmonton Center
03:08AM 54.9000 -115.7167 117° Southeast 430 495 37,000  Level Edmonton Center
03:09AM 54.8167 -115.5167 126° Southeast 430 495 37,000  Level Edmonton Center
03:10AM 54.7500 -115.3500 125° Southeast 430 495 37,000  Level Edmonton Center
03:11AM 54.6833 -115.1500 120° Southeast 430 495 37,000  Level Edmonton Center
03:12AM 54.6333 -115.0000 120° Southeast 440 506 37,000  Level Edmonton Center
03:13AM 54.5667 -114.8000 120° Southeast 440 506 37,000  Level Edmonton Center
03:14AM 54.4833 -114.6333 131° Southeast 440 506 37,000  Level Edmonton Center
03:15AM 54.4167 -114.4500 122° Southeast 440 506 37,000  Level Edmonton Center
03:16AM 54.3500 -114.2500 120° Southeast 440 506 37,000  Level Edmonton Center
03:17AM 54.2833 -114.0833 124° Southeast 440 506 37,000  Level Edmonton Center
03:18AM 54.2167 -113.9000 122° Southeast 440 506 37,000  Level Edmonton Center
03:19AM 54.1500 -113.7333 124° Southeast 440 506 37,000  Level Edmonton Center
03:20AM 54.0833 -113.5833 127° Southeast 440 506 37,000  Level Edmonton Center
03:21AM 54.0167 -113.3833 120° Southeast 440 506 37,000  Level Edmonton Center
03:22AM 53.9500 -113.2000 122° Southeast 440 506 37,000  Level Edmonton Center
03:23AM 53.8667 -113.0333 130° Southeast 450 518 37,000  Level Edmonton Center
03:24AM 53.8000 -112.8500 122° Southeast 450 518 37,000  Level Edmonton Center
03:25AM 53.7333 -112.7000 127° Southeast 450 518 37,000  Level Edmonton Center
03:26AM 53.6667 -112.5167 121° Southeast 450 518 37,000  Level Edmonton Center
03:27AM 53.5833 -112.3333 127° Southeast 450 518 37,000  Level Edmonton Center
03:28AM 53.5167 -112.1500 121° Southeast 450 518 37,000  Level Edmonton Center
03:29AM 53.4333 -111.9833 130° Southeast 450 518 37,000  Level Edmonton Center
03:30AM 53.3667 -111.8000 121° Southeast 460 529 37,000  Level Edmonton Center
03:31AM 53.3000 -111.6167 121° Southeast 460 529 37,000  Level Edmonton Center
03:32AM 53.2167 -111.4667 133° Southeast 460 529 37,000  Level Edmonton Center
03:33AM 53.1500 -111.2500 117° Southeast 460 529 37,000  Level Edmonton Center
03:34AM 53.0667 -111.1000 133° Southeast 460 529 37,000  Level Edmonton Center
03:35AM 52.9833 -110.9167 127° Southeast 460 529 37,000  Level Edmonton Center
03:36AM 52.9167 -110.7500 124° Southeast 460 529 37,000  Level Edmonton Center
03:37AM 52.8500 -110.5333 117° Southeast 460 529 37,000  Level Edmonton Center
03:38AM 52.8000 -110.3667 116° Southeast 450 518 37,000  Level Edmonton Center
03:39AM 52.7167 -110.1833 127° Southeast 460 529 37,000  Level Edmonton Center
03:40AM 52.6667 -110.0167 116° Southeast 460 529 37,000  Level Edmonton Center
03:41AM 52.6000 -109.8333 121° Southeast 460 529 37,000  Level Edmonton Center
03:42AM 52.5333 -109.6333 119° Southeast 460 529 37,000  Level Edmonton Center
03:43AM 52.4667 -109.4667 123° Southeast 460 529 37,000  Level Edmonton Center
03:44AM 52.3833 -109.2500 122° Southeast 460 529 37,000  Level Edmonton Center
03:45AM 52.3333 -109.0833 116° Southeast 470 541 37,000  Level Edmonton Center
03:46AM 52.2667 -108.9167 123° Southeast 470 541 37,000  Level Edmonton Center
03:47AM 52.1833 -108.7167 124° Southeast 470 541 37,000  Level Edmonton Center
03:48AM 52.1333 -108.5500 116° Southeast 470 541 37,000  Level Edmonton Center
03:49AM 52.0500 -108.3500 124° Southeast 470 541 37,000  Level Edmonton Center
03:50AM 51.9833 -108.1667 121° Southeast 470 541 37,000  Level Edmonton Center
03:51AM 51.9167 -108.0000 123° Southeast 470 541 37,000  Level Edmonton Center
03:52AM 51.8500 -107.8000 118° Southeast 470 541 37,000  Level Edmonton Center
03:53AM 51.7833 -107.6333 123° Southeast 470 541 37,000  Level Edmonton Center
03:54AM 51.7000 -107.4500 126° Southeast 470 541 37,000  Level Edmonton Center
03:55AM 51.6333 -107.2833 123° Southeast 470 541 37,000  Level Edmonton Center
03:56AM 51.5667 -107.1167 123° Southeast 470 541 37,000  Level Edmonton Center
03:57AM 51.4833 -106.9167 124° Southeast 470 541 37,000  Level Edmonton Center
03:58AM 51.4333 -106.7500 116° Southeast 470 541 37,000  Level Edmonton Center
03:59AM 51.3500 -106.5667 126° Southeast 470 541 37,000  Level Edmonton Center
04:00AM 51.2833 -106.4000 123° Southeast 470 541 37,000  Level Edmonton Center
04:01AM 51.2000 -106.2000 124° Southeast 470 541 37,000  Level Edmonton Center
04:02AM 51.1333 -106.0333 122° Southeast 470 541 37,000  Level Edmonton Center
04:03AM 51.0500 -105.8500 126° Southeast 470 541 37,000  Level Edmonton Center
04:04AM 50.9833 -105.6833 122° Southeast 470 541 37,000  Level Edmonton Center
04:05AM 50.9000 -105.5000 126° Southeast 470 541 37,000  Level Edmonton Center
04:06AM 50.8333 -105.3167 120° Southeast 480 552 37,000  Level Winnipeg Center
04:07AM 50.7667 -105.1500 122° Southeast 480 552 37,000  Level Winnipeg Center
04:08AM 50.6833 -105.0000 131° Southeast 480 552 37,000  Level Winnipeg Center
04:09AM 50.6000 -104.8000 123° Southeast 480 552 37,000  Level Winnipeg Center
04:10AM 50.5333 -104.6333 122° Southeast 480 552 37,000  Level Winnipeg Center
04:11AM 50.4500 -104.4667 128° Southeast 490 564 37,000  Level Winnipeg Center
04:12AM 50.3833 -104.2667 118° Southeast 480 552 37,000  Level Winnipeg Center
04:13AM 50.3167 -104.1000 122° Southeast 480 552 37,000  Level Winnipeg Center
04:14AM 50.2333 -103.9333 128° Southeast 480 552 37,000  Level Winnipeg Center
04:15AM 50.1667 -103.7667 122° Southeast 480 552 37,000  Level Winnipeg Center
04:16AM 50.0667 -103.5667 128° Southeast 490 564 37,000  Level Winnipeg Center
04:17AM 50.0000 -103.4000 122° Southeast 490 564 37,000  Level Winnipeg Center
04:18AM 49.9333 -103.2333 122° Southeast 490 564 37,000  Level Winnipeg Center
04:19AM 49.8500 -103.0667 128° Southeast 490 564 37,000  Level Winnipeg Center
04:20AM 49.7833 -102.8833 119° Southeast 490 564 37,000  Level Winnipeg Center
04:21AM 49.7000 -102.7167 128° Southeast 490 564 37,000  Level Winnipeg Center
04:22AM 49.6333 -102.5500 122° Southeast 490 564 37,000  Level Winnipeg Center
04:23AM 49.5333 -102.3500 128° Southeast 490 564 37,000  Level Winnipeg Center
04:24AM 49.4667 -102.2000 124° Southeast 490 564 37,000  Level Winnipeg Center
04:25AM 49.3833 -102.0333 127° Southeast 490 564 37,000  Level Winnipeg Center
04:26AM 49.3000 -101.8500 125° Southeast 490 564 37,000  Level Winnipeg Center
04:27AM 49.2333 -101.6833 121° Southeast 490 564 37,000  Level Winnipeg Center
04:28AM 49.1500 -101.5167 127° Southeast 490 564 37,000  Level Winnipeg Center
04:29AM 49.0833 -101.3667 124° Southeast 490 564 37,000  Level Winnipeg Center
04:30AM 48.9833 -101.2000 132° Southeast 490 564 37,000  Level Winnipeg Center
04:31AM 48.9000 -101.0167 125° Southeast 490 564 37,000  Level Winnipeg Center
04:32AM 48.8333 -100.8500 121° Southeast 490 564 37,000  Level Winnipeg Center
04:33AM 48.7500 -100.6667 125° Southeast 490 564 37,000  Level Winnipeg Center
04:34AM 48.6678 -100.4817 124° Southeast 489 563 37,000  Level Minneapolis Center
04:35AM 48.5844 -100.3150 127° Southeast 492 566 37,000  Level Minneapolis Center
04:36AM 48.5014 -100.1503 127° Southeast 493 567 37,000  Level Minneapolis Center
04:37AM 48.4186 -99.9864 127° Southeast 494 568 37,000  Level Minneapolis Center
04:38AM 48.3369 -99.8200 126° Southeast 495 570 37,000 -60 Level Minneapolis Center
04:39AM 48.2539 -99.6542 127° Southeast 497 572 36,900  Descending Minneapolis Center
04:40AM 48.1700 -99.4886 127° Southeast 498 573 37,000  Climbing Minneapolis Center
04:41AM 48.0864 -99.3242 127° Southeast 499 574 36,900 -60 Descending Minneapolis Center
04:42AM 48.0006 -99.1603 128° Southeast 501 577 36,900  Level Minneapolis Center
04:43AM 47.9150 -98.9947 128° Southeast 504 580 37,000  Climbing Minneapolis Center
04:44AM 47.8281 -98.8292 128° Southeast 506 582 37,000  Level Minneapolis Center
04:45AM 47.7417 -98.6647 128° Southeast 507 583 37,000  Level Minneapolis Center
04:46AM 47.6383 -98.4678 128° Southeast 507 583 37,000  Level Minneapolis Center
04:47AM 47.5519 -98.3061 128° Southeast 507 583 37,000 -60 Level Minneapolis Center
04:48AM 47.4661 -98.1461 128° Southeast 505 581 36,900 -60 Descending Minneapolis Center
04:49AM 47.3811 -97.9894 129° Southeast 505 581 36,900  Level Minneapolis Center
04:50AM 47.2800 -97.8006 128° Southeast 500 575 37,000  Climbing Minneapolis Center
04:51AM 47.1931 -97.6397 128° Southeast 505 581 36,900  Descending Minneapolis Center
04:52AM 47.1044 -97.4772 129° Southeast 512 589 37,000  Climbing Minneapolis Center
04:53AM 47.0153 -97.3161 129° Southeast 512 589 36,900  Descending Minneapolis Center
04:54AM 46.9261 -97.1550 129° Southeast 512 589 37,000  Climbing Minneapolis Center
04:55AM 46.8347 -96.9961 130° Southeast 512 589 37,000  Level Minneapolis Center
04:56AM 46.7469 -96.8328 128° Southeast 513 590 37,000  Level Minneapolis Center
04:57AM 46.6689 -96.6547 123° Southeast 520 598 37,000  Level Minneapolis Center
04:58AM 46.5917 -96.4772 122° Southeast 522 601 37,000  Level Minneapolis Center
04:59AM 46.5139 -96.3025 123° Southeast 518 596 37,000  Level Minneapolis Center
05:00AM 46.4358 -96.1269 123° Southeast 519 597 37,000 -60 Level Minneapolis Center
05:01AM 46.3575 -95.9517 123° Southeast 520 598 36,900  Descending Minneapolis Center
05:02AM 46.2733 -95.7642 123° Southeast 517 595 37,000  Climbing Minneapolis Center
05:03AM 46.1953 -95.5900 123° Southeast 516 594 37,000  Level Minneapolis Center
05:04AM 46.1144 -95.4156 124° Southeast 521 600 37,000  Level Minneapolis Center
05:05AM 46.0358 -95.2403 123° Southeast 520 598 37,000  Level Minneapolis Center
05:06AM 45.9558 -95.0681 124° Southeast 519 597 37,000  Level Minneapolis Center
05:07AM 45.8711 -94.8861 124° Southeast 520 598 37,000  Level Minneapolis Center
05:08AM 45.7906 -94.7144 124° Southeast 521 600 37,000  Level Minneapolis Center
05:09AM 45.7097 -94.5422 124° Southeast 523 602 37,000  Level Minneapolis Center
05:11AM 45.6289 -94.3703 124° Southeast 523 602 37,000  Level Minneapolis Center
05:12AM 45.5483 -94.2003 124° Southeast 521 600 37,000  Level Minneapolis Center
05:13AM 45.4669 -94.0297 124° Southeast 520 598 37,000  Level Minneapolis Center
05:14AM 45.3847 -93.8586 124° Southeast 523 602 37,000  Level Minneapolis Center
05:15AM 45.3000 -93.6881 125° Southeast 528 608 37,000  Level Minneapolis Center
05:16AM 45.2169 -93.5167 124° Southeast 529 609 37,000  Level Minneapolis Center
05:17AM 45.1319 -93.3428 125° Southeast 533 613 37,000  Level Minneapolis Center
05:18AM 45.0558 -93.1594 120° Southeast 537 618 37,000  Level Minneapolis Center
05:19AM 44.9781 -92.9744 121° Southeast 539 620 37,000  Level Minneapolis Center
05:20AM 44.9011 -92.7894 120° Southeast 540 621 37,000  Level Minneapolis Center
05:21AM 44.8192 -92.6128 123° Southeast 537 618 37,000  Level Minneapolis Center
05:22AM 44.7303 -92.4469 127° Southeast 531 611 37,000  Level Minneapolis Center
05:23AM 44.6403 -92.2831 128° Southeast 530 610 37,000  Level Minneapolis Center
05:24AM 44.5481 -92.1214 129° Southeast 531 611 37,000  Level Minneapolis Center
05:25AM 44.4575 -91.9600 128° Southeast 530 610 37,000  Level Minneapolis Center
05:26AM 44.3656 -91.7994 129° Southeast 529 609 37,000  Level Minneapolis Center
05:27AM 44.2736 -91.6408 129° Southeast 528 608 37,000  Level Minneapolis Center
05:28AM 44.1828 -91.4844 129° Southeast 523 602 37,000  Level Minneapolis Center
05:29AM 44.0933 -91.3283 129° Southeast 520 598 37,000  Level Minneapolis Center
05:30AM 44.0103 -91.1842 129° Southeast 515 593 37,000  Level Minneapolis Center
05:31AM 43.9197 -91.0300 129° Southeast 517 595 37,000  Level Minneapolis Center
05:32AM 43.8303 -90.8756 129° Southeast 517 595 37,000  Level Minneapolis Center
05:33AM 43.7397 -90.7217 129° Southeast 517 595 37,000  Level Minneapolis Center
05:34AM 43.6311 -90.5389 129° Southeast 516 594 37,000 -600 Level Minneapolis Center
05:35AM 43.5406 -90.3881 130° Southeast 513 590 35,800 -2,340 Descending Minneapolis Center
05:36AM 43.4497 -90.2358 129° Southeast 516 594 32,300 -3,360 Descending Minneapolis Center
05:37AM 43.3453 -90.0700 131° Southeast 544 626 28,700 -2,460 Descending Chicago Center
05:38AM 43.2286 -89.9675 147° Southeast 500 575 27,200 -1,860 Descending Chicago Center
05:39AM 43.1153 -89.8761 150° Southeast 478 550 25,000 -2,340 Descending Chicago Center
05:40AM 43.0061 -89.7931 151° Southeast 459 528 22,600 -2,340 Descending Chicago Center
05:41AM 42.8978 -89.7128 151° Southeast 447 514 20,300 -1,800 Descending Chicago Center
05:42AM 42.7972 -89.6283 148° Southeast 431 496 19,000 -1,500 Descending Chicago Center
05:43AM 42.7336 -89.5069 125° Southeast 398 458 17,400 -1,800 Descending Chicago Center
05:44AM 42.6775 -89.3794 121° Southeast 394 453 15,400 -1,740 Descending Chicago Center
05:45AM 42.6197 -89.2519 122° Southeast 398 458 13,900 -1,200 Descending Chicago Center
05:46AM 42.5628 -89.1233 121° Southeast 398 458 13,100 -480 Descending Chicago Center
05:47AM 42.5197 -88.9892 113° Southeast 392 451 13,000 -540 Descending Chicago Center
05:48AM 42.4797 -88.8511 111° Southeast 394 453 12,100 -1,440 Descending Chicago Center
05:49AM 42.4414 -88.7183 111° Southeast 382 440 10,200 -1,080 Descending Chicago Center
05:50AM 42.3961 -88.5639 112° Southeast 381 438 10,000 -60 Descending Chicago Center
05:51AM 42.3497 -88.4219 114° Southeast 406 467 10,100  Climbing Chicago Center
05:52AM 42.3036 -88.3161 120° Southeast 401 461 10,000 -60 Descending Chicago Center
05:53AM 42.2519 -88.1889 119° Southeast 389 448 10,000  Level Chicago Center
05:54AM 42.2033 -88.0681 118° Southeast 371 427 10,000 -300 Level Chicago Center
05:55AM 42.1611 -87.9647 119° Southeast 320 368 9,400 -1,200 Descending Chicago Center
05:56AM 42.1117 -87.8436 119° Southeast 308 354 7,600 -1,500 Descending Chicago Center
05:57AM 42.0786 -87.7397 113° Southeast 304 350 6,400 -900 Descending Chicago Center
05:58AM 42.0514 -87.6378 110° East 292 336 5,800 -600 Descending Chicago Center
05:59AM 42.0378 -87.5506 102° East 246 283 5,200 -780 Descending Chicago Center
06:00AM 41.9925 -87.5503 180° South 214 246 4,300 -660 Descending Chicago Center
06:01AM 41.9686 -87.5953 234° Southwest 169 194 3,900 -360 Descending Chicago Center
06:02AM 41.9700 -87.6486 272° West 151 174 3,600 -360 Descending Chicago Center
06:03AM 41.9689 -87.7008 268° West 143 165 3,200 -420 Descending Chicago Center